createdAt,value
2018-06-14T00:01:43.591Z,4.50
2018-06-14T00:04:13.078Z,4.00
2018-06-14T00:06:43.149Z,3.67
2018-06-14T00:09:12.915Z,3.67
2018-06-14T00:11:42.595Z,3.30
2018-06-14T00:14:12.395Z,3.37
2018-06-14T00:16:41.368Z,4.63
2018-06-14T00:19:11.028Z,4.07
2018-06-14T00:21:40.858Z,5.20
2018-06-14T00:24:10.370Z,4.70
2018-06-14T00:26:39.997Z,4.03
2018-06-14T00:29:09.605Z,3.50
2018-06-14T00:31:39.141Z,3.43
2018-06-14T00:34:09.032Z,3.97
2018-06-14T00:36:38.598Z,3.50
2018-06-14T00:39:09.423Z,3.90
2018-06-14T00:41:39.843Z,4.00
2018-06-14T00:44:09.499Z,3.90
2018-06-14T00:46:39.138Z,3.23
2018-06-14T00:49:08.728Z,3.67
2018-06-14T00:51:38.259Z,3.83
2018-06-14T00:54:07.707Z,3.43
2018-06-14T00:56:49.063Z,3.67
2018-06-14T00:59:20.278Z,3.50
2018-06-14T01:01:49.684Z,3.97
2018-06-14T01:04:19.232Z,3.40
2018-06-14T01:06:48.601Z,4.10
2018-06-14T01:09:18.120Z,4.80
2018-06-14T01:11:47.893Z,4.90
2018-06-14T01:14:17.497Z,4.50
2018-06-14T01:16:46.972Z,3.87
2018-06-14T01:19:16.510Z,4.53
2018-06-14T01:21:46.279Z,3.97
2018-06-14T01:24:15.980Z,4.37
2018-06-14T01:26:45.740Z,4.40
2018-06-14T01:29:15.563Z,7.13
2018-06-14T01:31:45.189Z,3.57
2018-06-14T01:34:15.334Z,3.73
2018-06-14T01:36:45.134Z,3.87
2018-06-14T01:39:14.555Z,3.67
2018-06-14T01:41:44.394Z,4.07
2018-06-14T01:44:13.937Z,3.80
2018-06-14T01:46:43.558Z,3.87
2018-06-14T01:49:13.080Z,4.10
2018-06-14T01:51:42.573Z,3.97
2018-06-14T01:54:12.510Z,3.93
2018-06-14T01:56:42.253Z,4.13
2018-06-14T01:59:11.826Z,4.13
2018-06-14T02:01:40.672Z,4.00
2018-06-14T02:04:10.184Z,4.10
2018-06-14T02:06:39.599Z,4.53
2018-06-14T02:09:10.014Z,5.73
2018-06-14T02:11:39.741Z,4.30
2018-06-14T02:14:09.388Z,4.60
2018-06-14T02:16:39.087Z,4.33
2018-06-14T02:19:08.632Z,5.00
2018-06-14T02:21:38.223Z,4.40
2018-06-14T02:24:07.682Z,4.90
2018-06-14T02:26:37.286Z,7.60
2018-06-14T02:29:07.169Z,4.40
2018-06-14T02:31:36.661Z,5.17
2018-06-14T02:34:06.618Z,5.33
2018-06-14T02:36:38.057Z,4.80
2018-06-14T02:39:07.794Z,4.13
2018-06-14T02:41:37.194Z,4.40
2018-06-14T02:44:07.185Z,3.33
2018-06-14T02:46:36.763Z,4.37
2018-06-14T02:49:06.370Z,4.30
2018-06-14T02:51:36.158Z,5.00
2018-06-14T02:54:05.644Z,4.67
2018-06-14T02:56:35.502Z,4.50
2018-06-14T02:59:04.838Z,4.07
2018-06-14T03:01:34.401Z,3.77
2018-06-14T03:04:04.437Z,4.93
2018-06-14T03:06:33.661Z,3.47
2018-06-14T03:09:03.367Z,4.77
2018-06-14T03:11:32.846Z,4.20
2018-06-14T03:14:02.397Z,4.20
2018-06-14T03:16:31.944Z,4.97
2018-06-14T03:19:01.885Z,4.30
2018-06-14T03:21:31.849Z,4.80
2018-06-14T03:24:01.411Z,5.17
2018-06-14T03:26:31.637Z,5.07
2018-06-14T03:29:01.410Z,4.00
2018-06-14T03:31:31.231Z,4.17
2018-06-14T03:34:00.955Z,6.47
2018-06-14T03:36:31.012Z,5.17
2018-06-14T03:39:01.358Z,4.90
2018-06-14T03:41:31.062Z,4.40
2018-06-14T03:44:00.834Z,4.37
2018-06-14T03:46:31.560Z,4.00
2018-06-14T03:49:01.569Z,4.23
2018-06-14T03:51:31.255Z,5.27
2018-06-14T03:54:00.736Z,4.43
2018-06-14T03:56:30.350Z,3.97
2018-06-14T03:58:59.975Z,5.53
2018-06-14T04:01:29.594Z,4.13
2018-06-14T04:04:00.099Z,4.30
2018-06-14T04:06:29.837Z,4.43
2018-06-14T04:08:59.629Z,5.33
2018-06-14T04:11:29.036Z,4.47
2018-06-14T04:13:58.823Z,6.50
2018-06-14T04:16:28.575Z,4.87
2018-06-14T04:18:58.360Z,4.67
2018-06-14T04:21:27.834Z,4.50
2018-06-14T04:23:57.523Z,5.60
2018-06-14T04:26:27.002Z,5.37
2018-06-14T04:28:56.453Z,4.03
2018-06-14T04:31:26.280Z,3.77
2018-06-14T04:33:57.175Z,4.13
2018-06-14T04:36:26.888Z,3.87
2018-06-14T04:38:56.613Z,4.77
2018-06-14T04:41:26.187Z,4.33
2018-06-14T04:43:55.555Z,5.33
2018-06-14T04:46:26.126Z,4.50
2018-06-14T04:48:56.208Z,4.40
2018-06-14T04:51:26.269Z,4.60
2018-06-14T04:53:56.077Z,5.63
2018-06-14T04:56:25.810Z,4.83
2018-06-14T04:58:56.122Z,5.73
2018-06-14T05:01:26.121Z,4.13
2018-06-14T05:03:56.293Z,4.93
2018-06-14T05:06:26.227Z,4.67
2018-06-14T05:08:55.775Z,5.30
2018-06-14T05:11:25.341Z,6.63
2018-06-14T05:13:54.873Z,4.57
2018-06-14T05:16:24.400Z,3.80
2018-06-14T05:18:54.358Z,4.40
2018-06-14T05:21:23.809Z,4.80
2018-06-14T05:23:53.397Z,4.87
2018-06-14T05:26:22.882Z,4.27
2018-06-14T05:28:52.349Z,4.57
2018-06-14T05:31:21.829Z,4.30
2018-06-14T05:33:51.470Z,4.63
2018-06-14T05:36:20.975Z,4.27
2018-06-14T05:38:50.670Z,4.80
2018-06-14T05:41:20.078Z,7.20
2018-06-14T05:43:49.461Z,4.97
2018-06-14T05:46:19.132Z,4.77
2018-06-14T05:48:48.673Z,4.73
2018-06-14T05:51:18.347Z,4.43
2018-06-14T05:53:47.783Z,6.13
2018-06-14T05:56:17.460Z,4.50
2018-06-14T05:58:46.928Z,4.40
2018-06-14T06:01:16.478Z,4.93
2018-06-14T06:03:45.833Z,4.60
2018-06-14T06:06:15.196Z,5.07
2018-06-14T06:08:44.976Z,6.63
2018-06-14T06:11:14.630Z,5.03
2018-06-14T06:13:44.140Z,6.13
2018-06-14T06:16:13.514Z,4.67
2018-06-14T06:18:43.162Z,4.70
2018-06-14T06:21:12.702Z,5.70
2018-06-14T06:23:42.934Z,4.00
2018-06-14T06:26:12.561Z,4.63
2018-06-14T06:28:41.844Z,3.70
2018-06-14T06:31:11.108Z,3.50
2018-06-14T06:33:40.812Z,3.83
2018-06-14T06:36:10.558Z,4.47
2018-06-14T06:38:40.217Z,3.40
2018-06-14T06:41:09.716Z,3.67
2018-06-14T06:43:39.479Z,5.00
2018-06-14T06:46:09.145Z,3.90
2018-06-14T06:48:38.825Z,3.80
2018-06-14T06:51:08.201Z,3.50
2018-06-14T06:53:37.948Z,3.00
2018-06-14T06:56:07.414Z,3.20
2018-06-14T06:58:36.544Z,5.37
2018-06-14T07:01:06.071Z,3.50
2018-06-14T07:03:35.211Z,4.30
2018-06-14T07:06:04.446Z,2.43
2018-06-14T07:08:33.938Z,2.00
2018-06-14T07:11:03.642Z,2.13
2018-06-14T07:13:33.132Z,1.70
2018-06-14T07:16:02.690Z,3.10
2018-06-14T07:18:32.171Z,3.43
2018-06-14T07:21:01.758Z,2.80
2018-06-14T07:23:31.223Z,3.10
2018-06-14T07:26:00.557Z,3.53
2018-06-14T07:28:30.078Z,4.37
2018-06-14T07:30:59.385Z,2.20
2018-06-14T07:33:28.824Z,3.23
2018-06-14T07:35:58.346Z,2.97
2018-06-14T07:38:27.698Z,3.50
2018-06-14T07:40:57.571Z,3.03
2018-06-14T07:43:27.073Z,2.50
2018-06-14T07:45:56.463Z,4.60
2018-06-14T07:48:25.342Z,2.87
2018-06-14T07:50:54.825Z,2.87
2018-06-14T07:53:24.483Z,3.03
2018-06-14T07:55:53.254Z,2.87
2018-06-14T07:58:22.761Z,3.43
2018-06-14T08:00:52.436Z,1.87
2018-06-14T08:03:22.568Z,1.83
2018-06-14T08:05:51.912Z,1.90
2018-06-14T08:08:21.477Z,1.90
2018-06-14T08:10:50.973Z,2.60
2018-06-14T08:13:20.501Z,1.90
2018-06-14T08:15:50.128Z,3.97
2018-06-14T08:18:19.541Z,1.40
2018-06-14T08:20:49.620Z,1.70
2018-06-14T08:23:19.059Z,1.70
2018-06-14T08:25:48.839Z,1.80
2018-06-14T08:28:18.253Z,2.60
2018-06-14T08:30:47.879Z,2.03
2018-06-14T08:33:17.373Z,2.67
2018-06-14T08:35:46.767Z,1.47
2018-06-14T08:38:16.202Z,2.07
2018-06-14T08:40:45.735Z,2.57
2018-06-14T08:43:15.320Z,3.17
2018-06-14T08:45:44.760Z,2.03
2018-06-14T08:48:14.457Z,1.63
2018-06-14T08:50:43.943Z,1.83
2018-06-14T08:53:13.462Z,2.57
2018-06-14T08:55:43.127Z,3.50
2018-06-14T08:58:12.807Z,1.60
2018-06-14T09:00:42.044Z,1.60
2018-06-14T09:03:11.425Z,2.80
2018-06-14T09:05:40.834Z,4.77
2018-06-14T09:08:10.115Z,2.93
2018-06-14T09:10:39.920Z,2.90
2018-06-14T09:13:09.374Z,2.10
2018-06-14T09:15:38.989Z,3.23
2018-06-14T09:18:08.586Z,3.20
2018-06-14T09:20:38.185Z,2.57
2018-06-14T09:23:07.682Z,2.53
2018-06-14T09:25:37.095Z,2.53
2018-06-14T09:28:06.459Z,2.17
2018-06-14T09:30:36.066Z,2.70
2018-06-14T09:33:05.511Z,2.37
2018-06-14T09:35:35.352Z,2.00
2018-06-14T09:38:04.416Z,2.80
2018-06-14T09:40:33.699Z,2.10
2018-06-14T09:43:03.291Z,3.73
2018-06-14T09:45:32.777Z,1.90
2018-06-14T09:48:02.057Z,2.47
2018-06-14T09:50:31.796Z,3.00
2018-06-14T09:53:01.241Z,2.50
2018-06-14T09:55:30.841Z,2.67
2018-06-14T09:58:00.455Z,2.50
2018-06-14T10:00:30.576Z,2.20
2018-06-14T10:02:59.948Z,2.50
2018-06-14T10:05:29.475Z,2.60
2018-06-14T10:07:59.075Z,3.00
2018-06-14T10:10:27.908Z,2.70
2018-06-14T10:12:57.579Z,4.53
2018-06-14T10:15:27.205Z,2.80
2018-06-14T10:17:56.713Z,2.50
2018-06-14T10:20:26.116Z,3.37
2018-06-14T10:22:56.795Z,2.60
2018-06-14T10:25:26.121Z,3.07
2018-06-14T10:27:55.577Z,3.17
2018-06-14T10:30:25.574Z,2.37
2018-06-14T10:32:55.252Z,3.57
2018-06-14T10:35:24.750Z,3.57
2018-06-14T10:37:54.126Z,3.27
2018-06-14T10:40:23.429Z,4.00
2018-06-14T10:42:53.105Z,4.20
2018-06-14T10:45:22.701Z,3.87
2018-06-14T10:47:53.350Z,4.60
2018-06-14T10:50:23.123Z,3.80
2018-06-14T10:52:52.889Z,3.23
2018-06-14T10:55:22.555Z,3.43
2018-06-14T10:57:51.405Z,3.03
2018-06-14T11:00:21.053Z,3.00
2018-06-14T11:02:50.498Z,4.10
2018-06-14T11:05:20.251Z,3.50
2018-06-14T11:07:51.030Z,3.43
2018-06-14T11:10:20.639Z,3.67
2018-06-14T11:12:51.087Z,4.80
2018-06-14T11:15:20.691Z,4.00
2018-06-14T11:17:50.397Z,4.00
2018-06-14T11:20:19.742Z,5.40
2018-06-14T11:22:49.249Z,4.00
2018-06-14T11:25:18.843Z,3.13
2018-06-14T11:27:48.270Z,4.87
2018-06-14T11:30:17.651Z,4.63
2018-06-14T11:32:47.170Z,4.10
2018-06-14T11:35:16.617Z,4.93
2018-06-14T11:37:46.132Z,3.90
2018-06-14T11:40:15.483Z,10.27
2018-06-14T11:42:45.469Z,3.50
2018-06-14T11:45:15.432Z,5.90
2018-06-14T11:47:44.787Z,4.67
2018-06-14T11:50:15.457Z,4.27
2018-06-14T11:52:44.869Z,4.13
2018-06-14T11:55:14.546Z,4.17
2018-06-14T11:57:44.643Z,4.13
2018-06-14T12:00:14.138Z,4.87
2018-06-14T12:02:43.486Z,4.30
2018-06-14T12:05:15.245Z,4.43
2018-06-14T12:07:44.685Z,4.67
2018-06-14T12:10:14.100Z,4.60
2018-06-14T12:12:43.657Z,5.60
2018-06-14T12:15:13.437Z,4.30
2018-06-14T12:17:46.200Z,5.07
2018-06-14T12:20:15.635Z,4.47
2018-06-14T12:22:45.074Z,5.07
2018-06-14T12:25:14.307Z,4.47
2018-06-14T12:27:44.029Z,5.97
2018-06-14T12:30:15.624Z,4.07
2018-06-14T12:32:45.162Z,4.10
2018-06-14T12:35:15.209Z,3.73
2018-06-14T12:37:44.859Z,4.40
2018-06-14T12:40:14.506Z,3.63
2018-06-14T12:42:44.108Z,4.13
2018-06-14T12:45:15.348Z,3.37
2018-06-14T12:47:44.811Z,4.53
2018-06-14T12:50:14.753Z,4.10
2018-06-14T12:52:44.192Z,4.27
2018-06-14T12:55:14.039Z,3.83
2018-06-14T12:57:43.688Z,3.67
2018-06-14T13:00:13.819Z,5.63
2018-06-14T13:02:43.723Z,4.60
2018-06-14T13:05:14.330Z,6.97
2018-06-14T13:07:43.680Z,4.07
2018-06-14T13:10:13.010Z,3.73
2018-06-14T13:12:42.642Z,5.63
2018-06-14T13:15:12.231Z,4.63
2018-06-14T13:17:41.969Z,3.60
2018-06-14T13:20:11.545Z,3.87
2018-06-14T13:22:40.866Z,3.93
2018-06-14T13:25:10.443Z,4.67
2018-06-14T13:27:39.293Z,3.80
2018-06-14T13:30:08.840Z,4.10
2018-06-14T13:32:38.375Z,4.10
2018-06-14T13:35:07.811Z,3.47
2018-06-14T13:37:37.357Z,4.37
2018-06-14T13:40:06.987Z,3.63
2018-06-14T13:42:36.131Z,5.20
2018-06-14T13:45:05.511Z,4.53
2018-06-14T13:47:35.398Z,4.40
2018-06-14T13:50:04.457Z,6.27
2018-06-14T13:52:34.281Z,4.57
2018-06-14T13:55:03.671Z,4.70
2018-06-14T13:57:33.263Z,4.87
2018-06-14T14:00:02.751Z,5.20
2018-06-14T14:02:32.031Z,4.03
2018-06-14T14:05:01.112Z,4.33
2018-06-14T14:07:30.702Z,7.57
2018-06-14T14:10:00.414Z,3.93
2018-06-14T14:12:29.824Z,5.37
2018-06-14T14:14:59.291Z,3.67
2018-06-14T14:17:29.040Z,3.50
2018-06-14T14:19:58.463Z,3.77
2018-06-14T14:22:28.197Z,3.50
2018-06-14T14:24:57.636Z,3.13
2018-06-14T14:27:27.127Z,3.30
2018-06-14T14:29:56.652Z,3.20
2018-06-14T14:32:26.296Z,4.43
2018-06-14T14:34:55.760Z,3.30
2018-06-14T14:37:25.349Z,2.57
2018-06-14T14:39:54.924Z,2.80
2018-06-14T14:42:24.243Z,3.40
2018-06-14T14:44:54.214Z,2.83
2018-06-14T14:47:23.852Z,3.83
2018-06-14T14:49:53.321Z,3.80
2018-06-14T14:52:22.792Z,2.93
2018-06-14T14:54:52.426Z,4.30
2018-06-14T14:57:21.932Z,3.57
2018-06-14T14:59:51.390Z,3.20
2018-06-14T15:02:20.796Z,3.97
2018-06-14T15:04:52.005Z,3.10
2018-06-14T15:07:23.542Z,4.57
2018-06-14T15:09:52.917Z,5.83
2018-06-14T15:12:22.210Z,4.13
2018-06-14T15:14:51.978Z,3.33
2018-06-14T15:17:21.590Z,3.73
2018-06-14T15:19:51.019Z,3.37
2018-06-14T15:22:20.975Z,3.73
2018-06-14T15:24:50.823Z,2.73
2018-06-14T15:27:20.251Z,2.87
2018-06-14T15:29:49.789Z,2.73
2018-06-14T15:32:19.440Z,3.33
2018-06-14T15:34:48.954Z,2.70
2018-06-14T15:37:17.887Z,5.03
2018-06-14T15:39:47.381Z,2.60
2018-06-14T15:42:16.878Z,4.00
2018-06-14T15:44:46.474Z,3.33
2018-06-14T15:47:15.908Z,3.17
2018-06-14T15:49:45.527Z,3.63
2018-06-14T15:52:14.905Z,3.83
2018-06-14T15:54:44.445Z,3.20
2018-06-14T15:57:13.996Z,3.13
2018-06-14T15:59:42.799Z,3.47
2018-06-14T16:02:12.290Z,3.23
2018-06-14T16:04:41.713Z,3.83
2018-06-14T16:07:11.228Z,3.30
2018-06-14T16:09:40.914Z,3.10
2018-06-14T16:12:10.192Z,3.03
2018-06-14T16:14:39.607Z,2.67
2018-06-14T16:17:09.043Z,2.77
2018-06-14T16:19:38.577Z,2.90
2018-06-14T16:22:07.954Z,2.70
2018-06-14T16:24:37.574Z,3.03
2018-06-14T16:27:06.989Z,3.60
2018-06-14T16:29:36.488Z,2.70
2018-06-14T16:32:06.001Z,2.80
2018-06-14T16:34:35.442Z,3.00
2018-06-14T16:37:05.133Z,2.53
2018-06-14T16:39:34.885Z,3.33
2018-06-14T16:42:04.343Z,2.90
2018-06-14T16:44:33.783Z,2.30
2018-06-14T16:47:03.289Z,2.93
2018-06-14T16:49:33.165Z,3.40
2018-06-14T16:52:02.402Z,2.83
2018-06-14T16:54:31.867Z,2.40
2018-06-14T16:57:01.195Z,3.40
2018-06-14T16:59:30.726Z,3.70
2018-06-14T17:02:00.229Z,4.27
2018-06-14T17:04:29.840Z,3.27
2018-06-14T17:06:59.384Z,2.47
2018-06-14T17:09:28.924Z,2.90
2018-06-14T17:11:58.319Z,2.90
2018-06-14T17:14:28.033Z,2.87
2018-06-14T17:17:00.441Z,6.40
2018-06-14T17:19:30.187Z,2.83
2018-06-14T17:21:59.762Z,15.53
2018-06-14T17:24:29.426Z,2.80
2018-06-14T17:26:59.095Z,2.53
2018-06-14T17:29:28.769Z,2.73
2018-06-14T17:31:58.554Z,3.17
2018-06-14T17:34:28.054Z,2.97
2018-06-14T17:36:58.706Z,2.60
2018-06-14T17:39:29.292Z,3.43
2018-06-14T17:41:58.960Z,3.07
2018-06-14T17:44:28.479Z,2.80
2018-06-14T17:46:58.145Z,2.20
2018-06-14T17:49:27.544Z,4.37
2018-06-14T17:51:57.139Z,2.70
2018-06-14T17:54:26.624Z,18.67
2018-06-14T17:56:56.385Z,4.07
2018-06-14T17:59:25.958Z,2.23
2018-06-14T18:01:55.617Z,1.90
2018-06-14T18:04:25.572Z,2.70
2018-06-14T18:06:56.112Z,2.93
2018-06-14T18:09:25.050Z,3.03
2018-06-14T18:11:54.461Z,2.00
2018-06-14T18:14:24.175Z,2.27
2018-06-14T18:16:54.580Z,2.30
2018-06-14T18:19:24.511Z,2.17
2018-06-14T18:21:54.691Z,2.60
2018-06-14T18:24:24.391Z,3.23
2018-06-14T18:26:54.097Z,2.77
2018-06-14T18:29:24.038Z,2.00
2018-06-14T18:31:53.826Z,2.47
2018-06-14T18:34:23.687Z,2.60
2018-06-14T18:36:53.400Z,2.60
2018-06-14T18:39:22.986Z,2.40
2018-06-14T18:41:53.410Z,2.90
2018-06-14T18:44:23.247Z,2.80
2018-06-14T18:46:53.412Z,2.93
2018-06-14T18:49:23.287Z,3.37
2018-06-14T18:51:53.000Z,3.10
2018-06-14T18:54:22.986Z,4.50
2018-06-14T18:56:52.758Z,2.67
2018-06-14T18:59:22.468Z,3.00
2018-06-14T19:01:52.428Z,2.70
2018-06-14T19:04:22.079Z,4.07
2018-06-14T19:06:52.245Z,3.03
2018-06-14T19:09:23.259Z,3.80
2018-06-14T19:11:53.024Z,2.57
2018-06-14T19:14:23.051Z,4.17
2018-06-14T19:16:53.112Z,2.90
2018-06-14T19:19:22.798Z,3.63
2018-06-14T19:21:52.520Z,3.60
2018-06-14T19:24:22.374Z,3.00
2018-06-14T19:26:52.036Z,3.87
2018-06-14T19:29:21.873Z,3.00
2018-06-14T19:31:51.815Z,3.00
2018-06-14T19:34:21.533Z,3.93
2018-06-14T19:36:51.343Z,4.43
2018-06-14T19:39:21.107Z,4.03
2018-06-14T19:41:51.546Z,3.07
2018-06-14T19:44:21.306Z,3.13
2018-06-14T19:46:51.000Z,3.53
2018-06-14T19:49:25.256Z,3.60
2018-06-14T19:51:56.064Z,3.20
2018-06-14T19:54:26.914Z,3.40
2018-06-14T19:56:56.584Z,3.63
2018-06-14T19:59:26.152Z,4.70
2018-06-14T20:01:56.344Z,3.87
2018-06-14T20:04:26.500Z,3.50
2018-06-14T20:06:56.078Z,3.17
2018-06-14T20:09:25.623Z,4.73
2018-06-14T20:11:55.486Z,3.43
2018-06-14T20:14:25.493Z,3.27
2018-06-14T20:16:55.066Z,3.07
2018-06-14T20:19:25.646Z,3.43
2018-06-14T20:21:55.054Z,3.50
2018-06-14T20:24:24.722Z,3.37
2018-06-14T20:26:54.430Z,3.47
2018-06-14T20:29:25.220Z,4.17
2018-06-14T20:31:54.897Z,4.77
2018-06-14T20:34:24.562Z,3.73
2018-06-14T20:36:54.133Z,3.60
2018-06-14T20:39:23.905Z,3.37
2018-06-14T20:41:53.260Z,3.57
2018-06-14T20:44:23.076Z,3.40
2018-06-14T20:46:52.701Z,5.73
2018-06-14T20:49:22.106Z,3.47
2018-06-14T20:51:52.233Z,5.23
2018-06-14T20:54:21.581Z,5.33
2018-06-14T20:56:51.161Z,4.33
2018-06-14T20:59:20.881Z,5.53
2018-06-14T21:01:50.397Z,4.77
2018-06-14T21:04:19.991Z,4.90
2018-06-14T21:06:49.324Z,6.33
2018-06-14T21:09:18.962Z,4.40
2018-06-14T21:11:48.574Z,4.17
2018-06-14T21:14:18.050Z,6.33
2018-06-14T21:16:47.533Z,4.13
2018-06-14T21:19:17.066Z,5.93
2018-06-14T21:21:46.489Z,4.20
2018-06-14T21:24:16.020Z,4.60
2018-06-14T21:26:45.540Z,4.60
2018-06-14T21:29:15.820Z,4.73
2018-06-14T21:31:45.607Z,5.83
2018-06-14T21:34:15.720Z,6.73
2018-06-14T21:36:46.000Z,6.03
2018-06-14T21:39:15.787Z,5.17
2018-06-14T21:41:45.475Z,5.27
2018-06-14T21:44:15.024Z,5.80
2018-06-14T21:46:44.758Z,5.10
2018-06-14T21:49:14.714Z,5.73
2018-06-14T21:51:44.594Z,5.50
2018-06-14T21:54:14.635Z,6.93
2018-06-14T21:56:44.157Z,7.77
2018-06-14T21:59:13.941Z,6.63
2018-06-14T22:01:43.745Z,7.33
2018-06-14T22:04:13.458Z,6.43
2018-06-14T22:06:43.418Z,6.40
2018-06-14T22:09:13.633Z,8.53
2018-06-14T22:11:43.290Z,6.33
2018-06-14T22:14:13.089Z,5.83
2018-06-14T22:16:42.594Z,5.47
2018-06-14T22:19:12.598Z,10.33
2018-06-14T22:21:43.793Z,6.93
2018-06-14T22:24:13.637Z,6.40
2018-06-14T22:26:43.326Z,7.10
2018-06-14T22:29:13.140Z,9.50
2018-06-14T22:31:42.912Z,8.97
2018-06-14T22:34:28.683Z,7.67
2018-06-14T22:36:59.738Z,7.07
2018-06-14T22:39:29.287Z,8.57
2018-06-14T22:41:58.952Z,10.00
2018-06-14T22:44:28.759Z,10.23
2018-06-14T22:46:58.756Z,10.87
2018-06-14T22:49:28.811Z,11.00
2018-06-14T22:52:09.256Z,10.93
2018-06-14T22:54:39.258Z,8.23
2018-06-14T22:57:12.092Z,9.10
2018-06-14T22:59:42.268Z,8.13
2018-06-14T23:02:12.634Z,9.93
2018-06-14T23:04:42.515Z,8.57
2018-06-14T23:07:12.096Z,9.37
2018-06-14T23:10:20.450Z,9.27
2018-06-14T23:12:50.287Z,10.80
2018-06-14T23:15:35.229Z,12.73
2018-06-14T23:18:05.529Z,11.70
2018-06-14T23:20:36.182Z,10.33
2018-06-14T23:23:06.576Z,10.27
2018-06-14T23:25:36.431Z,11.37
2018-06-14T23:28:06.227Z,12.30
2018-06-14T23:30:36.882Z,14.23
2018-06-14T23:33:06.761Z,13.50
2018-06-14T23:35:37.157Z,14.20
2018-06-14T23:38:06.962Z,14.93
2018-06-14T23:40:36.559Z,15.40
2018-06-14T23:43:06.143Z,14.90
2018-06-14T23:45:36.228Z,15.80
2018-06-14T23:48:05.813Z,14.80
2018-06-14T23:50:35.526Z,15.10
2018-06-14T23:53:05.413Z,15.20
2018-06-14T23:55:34.940Z,14.33
2018-06-14T23:58:04.409Z,13.87
